createdAt,value
2022-12-09T00:00:47.753Z,99769.16
2022-12-09T00:06:29.070Z,99758.28
2022-12-09T00:11:31.293Z,99545.66
2022-12-09T00:16:33.749Z,99404.09
2022-12-09T00:21:36.256Z,99802.75
2022-12-09T00:26:38.930Z,99814.88
2022-12-09T00:31:41.237Z,99501.88
2022-12-09T00:36:43.573Z,99816.19
2022-12-09T00:41:46.581Z,99630.31
2022-12-09T00:46:48.977Z,99813.06
2022-12-09T00:51:51.418Z,99705.59
2022-12-09T00:56:53.655Z,99813.16
2022-12-09T01:01:55.783Z,99801.38
2022-12-09T01:06:58.124Z,99727.28
2022-12-09T01:12:04.182Z,99720.63
2022-12-09T01:17:06.361Z,99692.81
2022-12-09T01:22:08.590Z,99602.13
2022-12-09T01:27:11.058Z,99769.34
2022-12-09T01:32:13.617Z,99787.66
2022-12-09T01:37:16.225Z,99586.75
2022-12-09T01:42:24.032Z,99736.06
2022-12-09T01:47:26.452Z,99715.22
2022-12-09T01:52:28.708Z,99763.06
2022-12-09T01:57:31.773Z,99545.88
2022-12-09T02:02:36.904Z,99799.16
2022-12-09T02:07:39.653Z,99734.31
2022-12-09T02:13:05.178Z,99803.88
2022-12-09T02:18:51.859Z,99712.16
2022-12-09T02:24:01.888Z,99807.19
2022-12-09T02:29:40.777Z,99772.22
2022-12-09T02:34:59.169Z,99653.53
2022-12-09T02:40:14.275Z,99729.53
2022-12-09T02:45:18.537Z,99685.41
2022-12-09T02:50:29.097Z,99763.41
2022-12-09T02:55:33.112Z,99762.31
2022-12-09T03:00:35.835Z,99766.16
2022-12-09T03:06:02.430Z,99792.31
2022-12-09T03:11:09.896Z,99790.41
2022-12-09T03:16:15.254Z,99793.88
2022-12-09T03:21:20.547Z,99654.34
2022-12-09T03:26:23.653Z,99785.91
2022-12-09T03:31:29.577Z,99673.66
2022-12-09T03:36:37.992Z,99785.00
2022-12-09T03:41:45.857Z,99796.00
2022-12-09T03:46:48.364Z,99631.16
2022-12-09T03:51:57.985Z,99784.81
2022-12-09T03:57:01.297Z,99748.66
2022-12-09T04:02:07.581Z,99674.44
2022-12-09T04:07:11.021Z,99784.72
2022-12-09T04:12:16.910Z,99739.34
2022-12-09T04:17:19.605Z,99769.09
2022-12-09T04:22:21.955Z,99654.81
2022-12-09T04:27:24.536Z,99697.41
2022-12-09T04:32:26.869Z,99727.28
2022-12-09T04:37:29.505Z,99654.00
2022-12-09T04:42:32.004Z,99688.28
2022-12-09T04:47:35.122Z,99766.16
2022-12-09T04:52:37.493Z,99654.53
2022-12-09T04:57:40.040Z,99758.19
2022-12-09T05:02:42.374Z,99748.09
2022-12-09T05:07:45.077Z,99674.38
2022-12-09T05:12:47.506Z,99573.00
2022-12-09T05:17:50.001Z,99758.69
2022-12-09T05:22:52.576Z,99673.00
2022-12-09T05:27:55.151Z,99713.16
2022-12-09T05:32:57.608Z,99755.38
2022-12-09T05:38:00.039Z,99722.06
2022-12-09T05:43:04.577Z,99756.34
2022-12-09T05:48:07.499Z,99753.88
2022-12-09T05:53:10.051Z,99662.41
2022-12-09T05:58:12.237Z,99616.97
2022-12-09T06:03:15.485Z,99734.66
2022-12-09T06:08:18.892Z,99534.19
2022-12-09T06:13:21.166Z,99654.28
2022-12-09T06:18:23.714Z,99731.41
2022-12-09T06:23:26.984Z,99616.66
2022-12-09T06:28:29.596Z,99585.81
2022-12-09T06:38:54.764Z,99697.16
2022-12-09T06:43:58.378Z,99539.13
2022-12-09T06:49:00.985Z,99597.66
2022-12-09T06:54:05.193Z,99537.25
2022-12-09T06:59:09.352Z,99566.56
2022-12-09T07:04:13.965Z,99566.28
2022-12-09T07:09:19.947Z,99706.78
2022-12-09T07:14:22.295Z,99703.56
2022-12-09T07:19:24.794Z,99671.88
2022-12-09T07:24:27.248Z,99619.88
2022-12-09T07:29:33.636Z,99643.22
2022-12-09T07:34:36.604Z,99699.63
2022-12-09T07:39:38.860Z,99493.13
2022-12-09T07:44:41.268Z,99671.03
2022-12-09T07:49:43.826Z,99692.22
2022-12-09T07:54:46.006Z,99585.81
2022-12-09T07:59:48.746Z,99566.88
2022-12-09T08:04:51.349Z,99650.09
2022-12-09T08:09:57.247Z,99649.41
2022-12-09T08:14:59.652Z,99658.00
2022-12-09T08:20:02.412Z,99625.81
2022-12-09T08:25:06.361Z,99523.16
2022-12-09T08:30:10.013Z,99643.13
2022-12-09T08:35:15.656Z,99394.88
2022-12-09T08:40:19.174Z,99583.75
2022-12-09T08:45:21.871Z,99538.47
2022-12-09T08:50:24.416Z,99652.31
2022-12-09T08:55:27.892Z,99504.63
2022-12-09T09:00:30.594Z,99494.78
2022-12-09T09:05:33.109Z,99470.81
2022-12-09T09:10:37.426Z,99575.19
2022-12-09T09:15:40.529Z,99575.28
2022-12-09T09:20:52.546Z,99595.13
2022-12-09T09:25:54.992Z,99565.22
2022-12-09T09:31:06.309Z,99415.59
2022-12-09T09:36:11.678Z,99590.97
2022-12-09T09:41:26.307Z,99575.03
2022-12-09T09:46:38.112Z,99408.31
2022-12-09T09:51:40.773Z,99307.22
2022-12-09T09:56:51.932Z,99416.00
2022-12-09T10:02:19.951Z,99572.91
2022-12-09T10:07:36.465Z,99392.56
2022-12-09T10:13:05.057Z,99523.81
2022-12-09T10:18:19.201Z,99447.50
2022-12-09T10:23:22.492Z,99492.56
2022-12-09T10:28:27.747Z,99442.94
2022-12-09T10:33:34.355Z,99370.88
2022-12-09T10:38:38.988Z,99507.28
2022-12-09T10:43:43.202Z,99480.22
2022-12-09T10:48:49.049Z,99499.06
2022-12-09T10:53:53.256Z,99488.91
2022-12-09T10:59:23.291Z,99472.19
2022-12-09T11:04:28.295Z,99472.06
2022-12-09T11:09:36.585Z,99449.97
2022-12-09T11:14:51.104Z,99485.91
2022-12-09T11:20:22.554Z,99417.47
2022-12-09T11:25:31.950Z,99471.28
2022-12-09T11:30:57.482Z,99413.47
2022-12-09T11:41:16.386Z,99461.84
2022-12-09T11:46:28.607Z,99373.88
2022-12-09T11:51:33.367Z,99397.16
2022-12-09T11:56:48.336Z,99285.59
2022-12-09T12:02:05.267Z,99341.91
2022-12-09T12:07:18.452Z,99442.94
2022-12-09T12:12:29.451Z,99436.00
2022-12-09T12:17:38.485Z,99404.28
2022-12-09T12:23:06.444Z,99435.34
2022-12-09T12:28:26.893Z,99440.28
2022-12-09T12:34:07.723Z,99433.44
2022-12-09T12:39:22.869Z,99444.38
2022-12-09T12:44:58.270Z,99440.78
2022-12-09T12:50:03.386Z,99431.25
2022-12-09T12:55:23.769Z,99422.69
2022-12-09T13:00:32.020Z,99395.09
2022-12-09T13:05:43.958Z,99302.53
2022-12-09T13:10:50.827Z,99419.09
2022-12-09T13:15:55.543Z,99300.06
2022-12-09T13:20:59.837Z,99399.41
2022-12-09T13:26:17.172Z,99425.91
2022-12-09T13:31:22.631Z,99436.75
2022-12-09T13:36:37.947Z,99381.56
2022-12-09T13:42:08.668Z,99332.47
2022-12-09T13:47:35.241Z,99367.38
2022-12-09T13:52:43.828Z,99293.75
2022-12-09T13:58:18.222Z,99374.25
2022-12-09T14:03:35.219Z,99433.75
2022-12-09T14:08:41.884Z,99307.75
2022-12-09T14:13:44.242Z,99088.38
2022-12-09T14:18:46.421Z,99406.72
2022-12-09T14:24:16.538Z,99413.06
2022-12-09T14:29:55.920Z,99416.41
2022-12-09T14:35:11.978Z,99388.19
2022-12-09T14:40:14.150Z,99399.16
2022-12-09T14:45:33.559Z,99382.19
2022-12-09T14:50:38.818Z,99331.03
2022-12-09T14:55:44.698Z,99165.03
2022-12-09T15:01:03.685Z,99355.69
2022-12-09T15:06:17.571Z,99385.34
2022-12-09T15:11:23.770Z,99189.09
2022-12-09T15:16:26.622Z,99401.34
2022-12-09T15:21:31.866Z,99398.47
2022-12-09T15:26:34.476Z,99417.59
2022-12-09T15:31:47.636Z,99355.75
2022-12-09T15:36:59.567Z,99314.84
2022-12-09T15:42:13.651Z,99146.88
2022-12-09T15:47:39.729Z,99384.69
2022-12-09T15:53:00.564Z,99370.28
2022-12-09T15:58:05.975Z,99356.44
2022-12-09T16:03:08.922Z,99311.75
2022-12-09T16:08:11.588Z,99221.00
2022-12-09T16:13:18.394Z,99379.31
2022-12-09T16:18:43.787Z,99373.41
2022-12-09T16:23:48.700Z,99239.53
2022-12-09T16:28:59.014Z,99370.94
2022-12-09T16:34:01.192Z,99326.78
2022-12-09T16:39:09.366Z,99380.47
2022-12-09T16:44:22.150Z,99368.47
2022-12-09T16:49:24.326Z,99209.44
2022-12-09T16:54:37.643Z,99348.09
2022-12-09T16:59:40.294Z,99183.09
2022-12-09T17:04:42.604Z,99271.34
2022-12-09T17:09:44.866Z,99167.53
2022-12-09T17:14:47.113Z,99137.19
2022-12-09T17:19:49.649Z,99195.41
2022-12-09T17:24:51.867Z,99353.16
2022-12-09T17:29:54.280Z,99278.84
2022-12-09T17:34:56.473Z,99017.28
2022-12-09T17:40:03.432Z,99279.41
2022-12-09T17:45:07.467Z,99201.88
2022-12-09T17:50:13.354Z,99363.19
2022-12-09T17:55:18.919Z,99273.91
2022-12-09T18:00:21.157Z,99345.22
2022-12-09T18:05:23.328Z,99262.78
2022-12-09T18:10:25.609Z,99315.47
2022-12-09T18:15:27.808Z,99306.13
2022-12-09T18:20:30.005Z,99269.72
2022-12-09T18:25:32.133Z,99252.50
2022-12-09T18:30:40.376Z,99207.25
2022-12-09T18:35:42.927Z,99282.25
2022-12-09T18:41:04.239Z,99289.13
2022-12-09T18:46:09.298Z,99232.25
2022-12-09T18:51:19.603Z,99223.72
2022-12-09T18:56:21.835Z,99221.22
2022-12-09T19:01:26.791Z,99193.38
2022-12-09T19:06:35.672Z,99219.47
2022-12-09T19:11:39.750Z,99240.75
2022-12-09T19:16:44.936Z,99202.53
2022-12-09T19:21:47.733Z,99062.88
2022-12-09T19:26:53.314Z,99147.75
2022-12-09T19:31:58.299Z,98841.00
2022-12-09T19:37:01.570Z,99153.88
2022-12-09T19:42:05.432Z,99176.97
2022-12-09T19:47:08.867Z,99131.31
2022-12-09T19:52:12.282Z,99113.44
2022-12-09T19:57:14.648Z,99150.06
2022-12-09T20:02:17.918Z,99209.25
2022-12-09T20:07:23.552Z,99198.25
2022-12-09T20:12:26.204Z,99199.53
2022-12-09T20:17:28.478Z,99200.44
2022-12-09T20:22:31.092Z,99134.31
2022-12-09T20:27:37.267Z,99262.69
2022-12-09T20:32:39.505Z,99166.09
2022-12-09T20:37:44.149Z,99176.03
2022-12-09T20:42:46.410Z,99216.75
2022-12-09T20:47:48.702Z,99187.75
2022-12-09T20:52:51.402Z,99192.66
2022-12-09T20:57:56.056Z,99152.31
2022-12-09T21:02:58.575Z,99192.88
2022-12-09T21:08:00.755Z,99223.31
2022-12-09T21:13:03.311Z,99042.84
2022-12-09T21:18:05.615Z,99238.63
2022-12-09T21:23:32.670Z,99229.06
2022-12-09T21:28:30.328Z,99189.31
2022-12-09T21:33:32.609Z,99154.78
2022-12-09T21:38:36.477Z,99211.28
2022-12-09T21:43:39.076Z,99156.59
2022-12-09T21:48:41.471Z,98620.19
2022-12-09T21:53:44.379Z,99073.91
2022-12-09T21:58:48.108Z,98784.81
2022-12-09T22:03:50.444Z,99097.63
2022-12-09T22:08:52.863Z,98650.19
2022-12-09T22:13:58.208Z,99220.13
2022-12-09T22:19:01.787Z,99193.44
2022-12-09T22:24:05.891Z,99044.19
2022-12-09T22:29:08.246Z,98826.81
2022-12-09T22:34:16.534Z,98614.00
2022-12-09T22:39:21.985Z,98627.81
2022-12-09T22:44:24.328Z,98873.03
2022-12-09T22:49:26.594Z,99062.16
2022-12-09T22:54:29.025Z,98368.50
2022-12-09T22:59:31.418Z,99053.00
2022-12-09T23:04:36.564Z,98890.69
2022-12-09T23:09:38.848Z,98979.19
2022-12-09T23:14:41.062Z,98864.03
2022-12-09T23:19:43.343Z,99080.94
2022-12-09T23:24:45.682Z,98656.91
2022-12-09T23:29:48.000Z,99107.00
2022-12-09T23:34:50.228Z,98552.97
2022-12-09T23:39:52.477Z,99063.00
2022-12-09T23:44:55.041Z,99213.72
2022-12-09T23:49:57.809Z,98869.94
2022-12-09T23:55:04.319Z,98822.16
